createdAt,value
2022-11-08T00:05:21.906Z,93.42
2022-11-08T00:10:44.365Z,93.73
2022-11-08T00:15:47.779Z,94.06
2022-11-08T00:20:51.724Z,94.24
2022-11-08T00:25:55.528Z,94.20
2022-11-08T00:30:58.939Z,94.31
2022-11-08T00:36:03.994Z,94.32
2022-11-08T00:41:07.308Z,94.55
2022-11-08T00:46:10.616Z,94.49
2022-11-08T00:51:14.025Z,94.61
2022-11-08T00:56:17.440Z,94.58
2022-11-08T01:01:22.054Z,94.77
2022-11-08T01:06:26.417Z,94.90
2022-11-08T01:11:29.829Z,94.54
2022-11-08T01:16:34.274Z,94.50
2022-11-08T01:21:37.373Z,94.71
2022-11-08T01:26:40.785Z,94.88
2022-11-08T01:31:44.199Z,94.91
2022-11-08T01:36:47.511Z,94.92
2022-11-08T01:41:50.923Z,94.83
2022-11-08T01:46:54.338Z,94.76
2022-11-08T01:52:15.778Z,94.35
2022-11-08T01:57:26.762Z,94.34
2022-11-08T02:02:30.268Z,94.52
2022-11-08T02:07:34.472Z,94.49
2022-11-08T02:12:37.922Z,94.50
2022-11-08T02:17:41.344Z,94.69
2022-11-08T02:23:18.645Z,94.73
2022-11-08T02:28:22.159Z,94.85
2022-11-08T02:33:25.369Z,95.02
2022-11-08T02:38:29.703Z,95.05
2022-11-08T02:43:32.919Z,95.10
2022-11-08T02:48:36.533Z,95.21
2022-11-08T02:53:39.848Z,95.45
2022-11-08T02:58:43.353Z,95.26
2022-11-08T03:03:46.668Z,95.19
2022-11-08T03:08:50.078Z,94.99
2022-11-08T03:13:53.594Z,95.33
2022-11-08T03:18:57.111Z,94.98
2022-11-08T03:24:00.524Z,95.03
2022-11-08T03:29:03.935Z,95.28
2022-11-08T03:34:07.183Z,95.44
2022-11-08T03:39:11.890Z,95.72
2022-11-08T03:44:15.201Z,96.18
2022-11-08T03:49:18.617Z,95.90
2022-11-08T03:54:22.025Z,96.17
2022-11-08T03:59:25.440Z,96.08
2022-11-08T04:04:28.853Z,96.13
2022-11-08T04:09:32.269Z,96.14
2022-11-08T04:14:54.622Z,96.29
2022-11-08T04:20:16.981Z,96.29
2022-11-08T04:25:20.290Z,96.49
2022-11-08T04:30:23.703Z,96.60
2022-11-08T04:35:27.116Z,96.78
2022-11-08T04:40:31.384Z,96.71
2022-11-08T04:45:34.559Z,96.65
2022-11-08T04:50:38.074Z,96.66
2022-11-08T04:55:41.384Z,96.68
2022-11-08T05:00:45.005Z,96.64
2022-11-08T05:05:48.314Z,96.67
2022-11-08T05:10:52.034Z,96.72
2022-11-08T05:15:55.346Z,96.74
2022-11-08T05:21:19.237Z,96.90
2022-11-08T05:26:23.017Z,97.06
2022-11-08T05:31:26.269Z,97.00
2022-11-08T05:36:29.686Z,96.92
2022-11-08T05:41:33.095Z,96.91
2022-11-08T05:46:36.546Z,97.08
2022-11-08T05:51:39.925Z,96.87
2022-11-08T05:56:43.438Z,96.92
2022-11-08T06:01:55.817Z,96.92
2022-11-08T06:06:59.172Z,96.99
2022-11-08T06:12:02.688Z,96.87
2022-11-08T06:17:06.412Z,96.78
2022-11-08T06:22:09.821Z,96.94
2022-11-08T06:27:14.878Z,96.93
2022-11-08T06:32:18.392Z,97.14
2022-11-08T06:37:21.702Z,97.09
2022-11-08T06:42:26.132Z,97.17
2022-11-08T06:47:29.247Z,97.41
2022-11-08T06:52:32.860Z,97.22
2022-11-08T06:57:36.375Z,97.24
2022-11-08T07:02:40.035Z,97.35
2022-11-08T07:07:43.713Z,97.43
2022-11-08T07:12:47.845Z,97.31
2022-11-08T07:17:51.195Z,97.30
2022-11-08T07:22:56.220Z,97.30
2022-11-08T07:28:02.954Z,97.12
2022-11-08T07:33:06.616Z,96.99
2022-11-08T07:38:10.032Z,96.78
2022-11-08T07:43:13.853Z,96.68
2022-11-08T07:48:17.062Z,96.34
2022-11-08T07:53:21.387Z,96.26
2022-11-08T07:58:24.912Z,96.25
2022-11-08T08:03:28.608Z,96.27
2022-11-08T08:08:32.047Z,95.88
2022-11-08T08:13:35.662Z,95.61
2022-11-08T08:18:38.973Z,95.56
2022-11-08T08:23:42.491Z,95.71
2022-11-08T08:28:45.801Z,95.23
2022-11-08T08:33:49.212Z,95.23
2022-11-08T08:38:52.524Z,94.73
2022-11-08T08:43:56.246Z,94.85
2022-11-08T08:48:59.555Z,94.54
2022-11-08T08:54:03.173Z,94.35
2022-11-08T09:04:29.969Z,93.83
2022-11-08T09:09:34.509Z,93.59
2022-11-08T09:14:37.920Z,93.91
2022-11-08T09:19:41.335Z,93.59
2022-11-08T09:24:44.751Z,93.82
2022-11-08T09:29:48.058Z,93.06
2022-11-08T09:34:52.380Z,92.53
2022-11-08T09:39:55.808Z,92.50
2022-11-08T09:45:07.618Z,92.25
2022-11-08T09:50:13.691Z,91.68
2022-11-08T09:55:32.163Z,91.06
2022-11-08T10:00:39.305Z,90.44
2022-11-08T10:05:50.656Z,90.60
2022-11-08T10:11:21.923Z,90.34
2022-11-08T10:16:40.184Z,89.31
2022-11-08T10:22:05.732Z,88.91
2022-11-08T10:27:31.044Z,88.87
2022-11-08T10:32:36.130Z,88.82
2022-11-08T10:37:42.651Z,88.06
2022-11-08T10:42:51.728Z,87.95
2022-11-08T10:47:55.549Z,87.14
2022-11-08T10:53:01.730Z,86.63
2022-11-08T10:58:26.542Z,85.95
2022-11-08T11:03:30.776Z,85.62
2022-11-08T11:08:34.294Z,85.48
2022-11-08T11:13:37.503Z,85.19
2022-11-08T11:18:52.907Z,84.25
2022-11-08T11:24:08.176Z,83.62
2022-11-08T11:29:22.558Z,83.56
2022-11-08T11:34:40.823Z,83.58
2022-11-08T11:39:51.294Z,83.00
2022-11-08T11:45:03.514Z,82.90
2022-11-08T11:50:19.727Z,82.83
2022-11-08T11:55:37.476Z,82.23
2022-11-08T12:00:51.748Z,81.55
2022-11-08T12:06:00.789Z,81.39
2022-11-08T12:11:40.143Z,81.21
2022-11-08T12:17:14.487Z,81.44
2022-11-08T12:22:35.819Z,80.82
2022-11-08T12:27:52.786Z,80.43
2022-11-08T12:33:21.047Z,80.25
2022-11-08T12:38:38.484Z,80.00
2022-11-08T12:44:15.895Z,80.18
2022-11-08T12:49:34.463Z,80.06
2022-11-08T12:54:53.952Z,79.79
2022-11-08T13:00:29.729Z,79.50
2022-11-08T13:05:38.157Z,79.74
2022-11-08T13:10:43.618Z,79.44
2022-11-08T13:16:16.933Z,79.48
2022-11-08T13:21:25.992Z,79.18
2022-11-08T13:26:32.034Z,79.48
2022-11-08T13:31:38.129Z,79.45
2022-11-08T13:36:53.011Z,79.43
2022-11-08T13:42:25.200Z,79.14
2022-11-08T13:47:34.855Z,79.17
2022-11-08T13:53:03.973Z,78.84
2022-11-08T13:58:35.954Z,79.12
2022-11-08T14:03:42.238Z,79.26
2022-11-08T14:09:42.994Z,79.06
2022-11-08T14:14:55.322Z,79.10
2022-11-08T14:20:17.931Z,79.01
2022-11-08T14:25:31.940Z,79.01
2022-11-08T14:30:35.257Z,79.18
2022-11-08T14:35:40.403Z,79.31
2022-11-08T14:41:01.235Z,79.52
2022-11-08T14:46:14.674Z,79.49
2022-11-08T14:51:18.805Z,79.78
2022-11-08T14:56:25.390Z,80.05
2022-11-08T15:01:30.151Z,80.23
2022-11-08T15:06:41.199Z,80.36
2022-11-08T15:11:52.903Z,80.51
2022-11-08T15:17:02.498Z,80.82
2022-11-08T15:22:33.659Z,81.04
2022-11-08T15:27:36.969Z,81.25
2022-11-08T15:32:40.692Z,81.43
2022-11-08T15:37:44.101Z,81.49
2022-11-08T15:42:51.002Z,81.79
2022-11-08T15:48:01.857Z,81.69
2022-11-08T15:53:06.998Z,82.06
2022-11-08T15:58:28.384Z,81.85
2022-11-08T16:03:33.937Z,82.23
2022-11-08T16:08:37.151Z,82.33
2022-11-08T16:13:40.766Z,82.38
2022-11-08T16:18:44.892Z,82.45
2022-11-08T16:23:48.208Z,82.81
2022-11-08T16:28:51.618Z,82.68
2022-11-08T16:33:56.363Z,82.87
2022-11-08T16:39:02.131Z,83.31
2022-11-08T16:44:05.852Z,83.37
2022-11-08T16:49:20.432Z,83.40
2022-11-08T16:54:28.616Z,83.75
2022-11-08T16:59:32.268Z,83.69
2022-11-08T17:04:35.606Z,84.04
2022-11-08T17:09:38.997Z,83.92
2022-11-08T17:14:42.509Z,84.07
2022-11-08T17:19:45.822Z,84.48
2022-11-08T17:24:49.234Z,84.57
2022-11-08T17:29:52.647Z,84.54
2022-11-08T17:34:56.165Z,85.11
2022-11-08T17:39:59.881Z,85.06
2022-11-08T17:45:07.993Z,85.12
2022-11-08T17:50:11.949Z,85.47
2022-11-08T17:55:15.445Z,85.46
2022-11-08T18:00:19.279Z,85.94
2022-11-08T18:05:22.999Z,85.89
2022-11-08T18:10:26.914Z,86.18
2022-11-08T18:15:30.224Z,86.27
2022-11-08T18:20:33.640Z,86.42
2022-11-08T18:25:37.153Z,86.58
2022-11-08T18:30:42.907Z,86.76
2022-11-08T18:35:48.689Z,86.59
2022-11-08T18:40:52.515Z,86.88
2022-11-08T18:45:56.232Z,86.90
2022-11-08T18:50:59.647Z,87.00
2022-11-08T18:56:06.839Z,87.38
2022-11-08T19:01:10.401Z,87.24
2022-11-08T19:06:14.289Z,87.49
2022-11-08T19:11:21.593Z,87.59
2022-11-08T19:16:25.317Z,87.72
2022-11-08T19:21:29.137Z,87.79
2022-11-08T19:26:32.345Z,88.04
2022-11-08T19:31:39.342Z,88.06
2022-11-08T19:36:45.725Z,88.17
2022-11-08T19:41:49.241Z,88.31
2022-11-08T19:46:52.654Z,88.47
2022-11-08T19:51:56.680Z,88.37
2022-11-08T19:57:04.578Z,88.81
2022-11-08T20:02:09.334Z,88.89
2022-11-08T20:07:12.711Z,88.73
2022-11-08T20:12:16.172Z,88.89
2022-11-08T20:17:19.584Z,89.08
2022-11-08T20:22:23.507Z,89.06
2022-11-08T20:27:26.926Z,89.18
2022-11-08T20:32:30.447Z,89.23
2022-11-08T20:37:33.855Z,89.56
2022-11-08T20:42:37.776Z,89.31
2022-11-08T20:47:41.189Z,89.52
2022-11-08T20:52:45.216Z,89.17
2022-11-08T20:57:50.062Z,89.54
2022-11-08T21:02:53.475Z,89.51
2022-11-08T21:08:56.507Z,89.59
2022-11-08T21:13:20.270Z,89.66
2022-11-08T21:18:24.811Z,89.58
2022-11-08T21:23:28.632Z,89.41
2022-11-08T21:28:32.358Z,89.53
2022-11-08T21:33:36.585Z,89.35
2022-11-08T21:38:40.407Z,89.54
2022-11-08T21:43:45.460Z,89.59
2022-11-08T21:48:56.859Z,89.50
2022-11-08T21:54:00.685Z,89.59
2022-11-08T21:59:04.103Z,89.59
2022-11-08T22:04:07.615Z,89.27
2022-11-08T22:09:11.125Z,89.48
2022-11-08T22:14:14.754Z,89.73
2022-11-08T22:19:18.160Z,89.46
2022-11-08T22:24:21.696Z,89.49
2022-11-08T22:29:25.086Z,89.30
2022-11-08T22:34:28.601Z,89.31
2022-11-08T22:39:32.017Z,89.14
2022-11-08T22:44:35.428Z,89.00
2022-11-08T22:49:43.960Z,89.21
2022-11-08T22:54:48.602Z,89.13
2022-11-08T22:59:52.123Z,88.96
2022-11-08T23:04:55.639Z,88.96
2022-11-08T23:09:59.258Z,89.04
2022-11-08T23:15:21.307Z,89.19
2022-11-08T23:20:43.356Z,89.17
2022-11-08T23:25:46.977Z,89.21
2022-11-08T23:31:09.128Z,89.45
2022-11-08T23:36:12.858Z,89.19
2022-11-08T23:41:35.206Z,89.02
2022-11-08T23:46:39.029Z,89.36
2022-11-08T23:51:42.648Z,89.20
2022-11-08T23:56:46.575Z,89.32
